sensor_id;sensor_type;location;lat;lon;timestamp;P1;durP1;ratioP1;P2;durP2;ratioP2
34212;SDS011;20477;51.390;8.102;2023-02-04T00:00:51;43.30;;;7.25;;
34212;SDS011;20477;51.390;8.102;2023-02-04T00:03:39;53.13;;;8.00;;
34212;SDS011;20477;51.390;8.102;2023-02-04T00:06:51;52.22;;;7.88;;
34212;SDS011;20477;51.390;8.102;2023-02-04T00:12:54;51.33;;;8.38;;
34212;SDS011;20477;51.390;8.102;2023-02-04T00:18:09;30.65;;;6.22;;
34212;SDS011;20477;51.390;8.102;2023-02-04T00:20:53;50.40;;;7.88;;
34212;SDS011;20477;51.390;8.102;2023-02-04T00:23:47;44.17;;;7.18;;
34212;SDS011;20477;51.390;8.102;2023-02-04T00:29:25;68.78;;;8.00;;
34212;SDS011;20477;51.390;8.102;2023-02-04T00:32:11;43.00;;;7.43;;
34212;SDS011;20477;51.390;8.102;2023-02-04T00:35:01;51.97;;;7.93;;
34212;SDS011;20477;51.390;8.102;2023-02-04T00:37:38;50.33;;;7.30;;
34212;SDS011;20477;51.390;8.102;2023-02-04T00:43:14;48.97;;;7.55;;
34212;SDS011;20477;51.390;8.102;2023-02-04T00:45:50;54.47;;;7.90;;
34212;SDS011;20477;51.390;8.102;2023-02-04T00:48:21;60.80;;;9.60;;
34212;SDS011;20477;51.390;8.102;2023-02-04T00:51:10;61.65;;;9.57;;
34212;SDS011;20477;51.390;8.102;2023-02-04T00:54:08;50.75;;;7.95;;
34212;SDS011;20477;51.390;8.102;2023-02-04T00:56:40;63.00;;;8.95;;
34212;SDS011;20477;51.390;8.102;2023-02-04T00:59:21;56.70;;;9.10;;
34212;SDS011;20477;51.390;8.102;2023-02-04T05:02:56;51.50;;;8.43;;
34212;SDS011;20477;51.390;8.102;2023-02-04T05:05:27;68.73;;;9.90;;
34212;SDS011;20477;51.390;8.102;2023-02-04T05:07:58;63.40;;;8.80;;
34212;SDS011;20477;51.390;8.102;2023-02-04T05:10:28;60.88;;;8.02;;
34212;SDS011;20477;51.390;8.102;2023-02-04T05:12:58;66.20;;;9.00;;
34212;SDS011;20477;51.390;8.102;2023-02-04T05:15:28;60.55;;;8.90;;
34212;SDS011;20477;51.390;8.102;2023-02-04T05:18:02;56.03;;;9.02;;
34212;SDS011;20477;51.390;8.102;2023-02-04T05:20:34;56.70;;;8.32;;
34212;SDS011;20477;51.390;8.102;2023-02-04T05:23:03;61.55;;;10.02;;
34212;SDS011;20477;51.390;8.102;2023-02-04T05:25:34;59.55;;;8.40;;
34212;SDS011;20477;51.390;8.102;2023-02-04T05:31:21;60.65;;;11.07;;
34212;SDS011;20477;51.390;8.102;2023-02-04T05:33:59;59.05;;;10.23;;
34212;SDS011;20477;51.390;8.102;2023-02-04T05:36:45;67.28;;;8.73;;
34212;SDS011;20477;51.390;8.102;2023-02-04T05:39:25;62.58;;;11.50;;
34212;SDS011;20477;51.390;8.102;2023-02-04T05:41:54;50.10;;;10.32;;
34212;SDS011;20477;51.390;8.102;2023-02-04T05:44:41;59.78;;;8.98;;
34212;SDS011;20477;51.390;8.102;2023-02-04T05:47:33;57.08;;;9.88;;
34212;SDS011;20477;51.390;8.102;2023-02-04T05:50:17;66.63;;;11.45;;
34212;SDS011;20477;51.390;8.102;2023-02-04T05:52:55;56.58;;;9.18;;
34212;SDS011;20477;51.390;8.102;2023-02-04T05:55:28;47.75;;;9.52;;
34212;SDS011;20477;51.390;8.102;2023-02-04T05:58:10;52.03;;;10.73;;
34212;SDS011;20477;51.390;8.102;2023-02-04T06:01:38;51.67;;;10.82;;
34212;SDS011;20477;51.390;8.102;2023-02-04T06:08:28;64.35;;;9.70;;
34212;SDS011;20477;51.390;8.102;2023-02-04T06:17:44;47.03;;;7.32;;
34212;SDS011;20477;51.390;8.102;2023-02-04T06:20:13;59.72;;;8.45;;
34212;SDS011;20477;51.390;8.102;2023-02-04T06:22:41;67.93;;;8.98;;
34212;SDS011;20477;51.390;8.102;2023-02-04T06:25:10;61.08;;;9.80;;
34212;SDS011;20477;51.390;8.102;2023-02-04T06:27:38;52.15;;;8.30;;
34212;SDS011;20477;51.390;8.102;2023-02-04T06:30:07;55.30;;;8.15;;
34212;SDS011;20477;51.390;8.102;2023-02-04T06:32:36;52.47;;;7.75;;
34212;SDS011;20477;51.390;8.102;2023-02-04T06:35:07;45.72;;;8.00;;
34212;SDS011;20477;51.390;8.102;2023-02-04T06:37:35;52.90;;;8.10;;
34212;SDS011;20477;51.390;8.102;2023-02-04T06:40:04;57.45;;;8.55;;
34212;SDS011;20477;51.390;8.102;2023-02-04T06:42:34;49.15;;;9.60;;
34212;SDS011;20477;51.390;8.102;2023-02-04T06:45:02;59.50;;;10.68;;
34212;SDS011;20477;51.390;8.102;2023-02-04T06:47:31;70.28;;;10.50;;
34212;SDS011;20477;51.390;8.102;2023-02-04T06:50:00;55.08;;;9.07;;
34212;SDS011;20477;51.390;8.102;2023-02-04T06:52:30;59.00;;;9.60;;
34212;SDS011;20477;51.390;8.102;2023-02-04T06:54:58;54.47;;;8.57;;
34212;SDS011;20477;51.390;8.102;2023-02-04T06:57:26;48.58;;;8.75;;
34212;SDS011;20477;51.390;8.102;2023-02-04T06:59:55;49.30;;;10.00;;
34212;SDS011;20477;51.390;8.102;2023-02-04T07:02:23;56.80;;;11.05;;
34212;SDS011;20477;51.390;8.102;2023-02-04T07:04:51;64.50;;;8.80;;
34212;SDS011;20477;51.390;8.102;2023-02-04T07:07:20;84.15;;;11.27;;
34212;SDS011;20477;51.390;8.102;2023-02-04T07:09:49;64.55;;;11.82;;
34212;SDS011;20477;51.390;8.102;2023-02-04T07:12:18;67.70;;;10.13;;
34212;SDS011;20477;51.390;8.102;2023-02-04T07:14:46;55.35;;;10.98;;
34212;SDS011;20477;51.390;8.102;2023-02-04T07:17:14;57.63;;;10.02;;
34212;SDS011;20477;51.390;8.102;2023-02-04T07:19:43;52.53;;;9.10;;
34212;SDS011;20477;51.390;8.102;2023-02-04T07:22:11;58.47;;;11.02;;
34212;SDS011;20477;51.390;8.102;2023-02-04T07:24:43;61.10;;;12.27;;
34212;SDS011;20477;51.390;8.102;2023-02-04T07:27:13;60.75;;;9.15;;
34212;SDS011;20477;51.390;8.102;2023-02-04T07:29:42;50.25;;;9.73;;
34212;SDS011;20477;51.390;8.102;2023-02-04T07:32:10;54.53;;;10.38;;
34212;SDS011;20477;51.390;8.102;2023-02-04T07:34:38;59.22;;;8.98;;
34212;SDS011;20477;51.390;8.102;2023-02-04T07:37:07;57.72;;;10.52;;
34212;SDS011;20477;51.390;8.102;2023-02-04T07:39:36;69.18;;;11.63;;
34212;SDS011;20477;51.390;8.102;2023-02-04T07:42:06;57.47;;;9.77;;
34212;SDS011;20477;51.390;8.102;2023-02-04T07:44:36;61.70;;;10.48;;
34212;SDS011;20477;51.390;8.102;2023-02-04T07:47:05;48.40;;;9.50;;
34212;SDS011;20477;51.390;8.102;2023-02-04T07:49:33;60.17;;;9.52;;
34212;SDS011;20477;51.390;8.102;2023-02-04T07:52:01;56.50;;;10.02;;
34212;SDS011;20477;51.390;8.102;2023-02-04T07:54:30;56.75;;;9.65;;
34212;SDS011;20477;51.390;8.102;2023-02-04T07:56:58;54.60;;;9.48;;
34212;SDS011;20477;51.390;8.102;2023-02-04T07:59:27;49.80;;;8.85;;
34212;SDS011;20477;51.390;8.102;2023-02-04T08:01:57;51.78;;;9.07;;
34212;SDS011;20477;51.390;8.102;2023-02-04T08:04:27;50.63;;;10.68;;
34212;SDS011;20477;51.390;8.102;2023-02-04T08:06:58;47.03;;;7.75;;
34212;SDS011;20477;51.390;8.102;2023-02-04T08:09:28;63.92;;;8.30;;
34212;SDS011;20477;51.390;8.102;2023-02-04T08:11:57;63.97;;;8.95;;
34212;SDS011;20477;51.390;8.102;2023-02-04T08:14:25;62.25;;;11.32;;
34212;SDS011;20477;51.390;8.102;2023-02-04T08:16:55;58.97;;;11.65;;
34212;SDS011;20477;51.390;8.102;2023-02-04T08:19:29;69.67;;;9.83;;
34212;SDS011;20477;51.390;8.102;2023-02-04T08:21:59;48.00;;;9.38;;
34212;SDS011;20477;51.390;8.102;2023-02-04T08:24:27;57.42;;;8.98;;
34212;SDS011;20477;51.390;8.102;2023-02-04T08:26:56;52.25;;;9.43;;
34212;SDS011;20477;51.390;8.102;2023-02-04T08:29:24;53.33;;;9.05;;
34212;SDS011;20477;51.390;8.102;2023-02-04T08:31:53;47.30;;;9.45;;
34212;SDS011;20477;51.390;8.102;2023-02-04T08:34:23;59.72;;;9.95;;
34212;SDS011;20477;51.390;8.102;2023-02-04T08:36:51;69.57;;;9.73;;
34212;SDS011;20477;51.390;8.102;2023-02-04T08:39:19;58.25;;;8.52;;
34212;SDS011;20477;51.390;8.102;2023-02-04T08:41:48;52.25;;;8.77;;
34212;SDS011;20477;51.390;8.102;2023-02-04T08:44:16;61.90;;;9.80;;
34212;SDS011;20477;51.390;8.102;2023-02-04T08:46:45;65.18;;;9.05;;
34212;SDS011;20477;51.390;8.102;2023-02-04T08:49:13;49.05;;;9.57;;
34212;SDS011;20477;51.390;8.102;2023-02-04T08:51:44;52.55;;;10.38;;
34212;SDS011;20477;51.390;8.102;2023-02-04T08:54:18;65.45;;;13.00;;
34212;SDS011;20477;51.390;8.102;2023-02-04T08:56:46;57.35;;;10.95;;
34212;SDS011;20477;51.390;8.102;2023-02-04T08:59:14;54.00;;;9.48;;
34212;SDS011;20477;51.390;8.102;2023-02-04T09:01:43;47.65;;;8.82;;
34212;SDS011;20477;51.390;8.102;2023-02-04T09:04:16;44.25;;;8.90;;
34212;SDS011;20477;51.390;8.102;2023-02-04T09:06:47;55.00;;;8.93;;
34212;SDS011;20477;51.390;8.102;2023-02-04T09:09:16;50.47;;;8.10;;
34212;SDS011;20477;51.390;8.102;2023-02-04T09:11:47;41.55;;;8.15;;
34212;SDS011;20477;51.390;8.102;2023-02-04T09:14:16;63.58;;;10.23;;
34212;SDS011;20477;51.390;8.102;2023-02-04T09:16:44;59.45;;;9.65;;
34212;SDS011;20477;51.390;8.102;2023-02-04T09:19:14;46.00;;;8.50;;
34212;SDS011;20477;51.390;8.102;2023-02-04T09:21:44;56.92;;;8.18;;
34212;SDS011;20477;51.390;8.102;2023-02-04T09:24:14;55.53;;;8.20;;
34212;SDS011;20477;51.390;8.102;2023-02-04T09:26:42;50.40;;;7.80;;
34212;SDS011;20477;51.390;8.102;2023-02-04T09:29:11;39.08;;;6.80;;
34212;SDS011;20477;51.390;8.102;2023-02-04T09:31:39;54.47;;;7.93;;
34212;SDS011;20477;51.390;8.102;2023-02-04T09:34:08;48.33;;;8.75;;
34212;SDS011;20477;51.390;8.102;2023-02-04T09:36:36;45.45;;;6.65;;
34212;SDS011;20477;51.390;8.102;2023-02-04T09:39:06;44.92;;;7.45;;
34212;SDS011;20477;51.390;8.102;2023-02-04T09:41:35;35.78;;;6.85;;
34212;SDS011;20477;51.390;8.102;2023-02-04T09:44:06;43.35;;;8.27;;
34212;SDS011;20477;51.390;8.102;2023-02-04T09:46:37;49.00;;;8.95;;
34212;SDS011;20477;51.390;8.102;2023-02-04T09:49:07;40.88;;;6.28;;
34212;SDS011;20477;51.390;8.102;2023-02-04T09:51:37;52.83;;;7.45;;
34212;SDS011;20477;51.390;8.102;2023-02-04T09:54:08;35.45;;;8.50;;
34212;SDS011;20477;51.390;8.102;2023-02-04T09:56:38;43.85;;;7.43;;
34212;SDS011;20477;51.390;8.102;2023-02-04T09:59:09;44.85;;;9.25;;
34212;SDS011;20477;51.390;8.102;2023-02-04T10:01:39;46.90;;;8.63;;
34212;SDS011;20477;51.390;8.102;2023-02-04T10:04:08;53.80;;;8.18;;
34212;SDS011;20477;51.390;8.102;2023-02-04T10:06:38;49.55;;;8.18;;
34212;SDS011;20477;51.390;8.102;2023-02-04T10:09:09;45.60;;;7.82;;
34212;SDS011;20477;51.390;8.102;2023-02-04T10:11:38;46.55;;;7.63;;
34212;SDS011;20477;51.390;8.102;2023-02-04T10:14:08;42.00;;;8.40;;
34212;SDS011;20477;51.390;8.102;2023-02-04T10:16:40;47.33;;;7.75;;
34212;SDS011;20477;51.390;8.102;2023-02-04T10:19:11;55.20;;;7.80;;
34212;SDS011;20477;51.390;8.102;2023-02-04T10:21:41;43.55;;;9.07;;
34212;SDS011;20477;51.390;8.102;2023-02-04T10:24:13;45.60;;;6.90;;
34212;SDS011;20477;51.390;8.102;2023-02-04T10:26:43;45.92;;;9.35;;
34212;SDS011;20477;51.390;8.102;2023-02-04T10:29:13;47.55;;;8.85;;
34212;SDS011;20477;51.390;8.102;2023-02-04T10:31:42;46.17;;;9.23;;
34212;SDS011;20477;51.390;8.102;2023-02-04T10:34:13;47.65;;;8.55;;
34212;SDS011;20477;51.390;8.102;2023-02-04T10:36:45;55.77;;;7.43;;
34212;SDS011;20477;51.390;8.102;2023-02-04T10:39:16;32.67;;;6.60;;
34212;SDS011;20477;51.390;8.102;2023-02-04T10:41:46;54.83;;;7.20;;
34212;SDS011;20477;51.390;8.102;2023-02-04T10:44:16;47.40;;;8.65;;
34212;SDS011;20477;51.390;8.102;2023-02-04T10:46:45;46.53;;;7.82;;
34212;SDS011;20477;51.390;8.102;2023-02-04T10:49:15;41.35;;;7.45;;
34212;SDS011;20477;51.390;8.102;2023-02-04T10:51:48;36.40;;;7.85;;
34212;SDS011;20477;51.390;8.102;2023-02-04T10:54:20;63.92;;;8.73;;
34212;SDS011;20477;51.390;8.102;2023-02-04T10:56:59;47.60;;;7.82;;
34212;SDS011;20477;51.390;8.102;2023-02-04T10:59:33;41.42;;;8.55;;
34212;SDS011;20477;51.390;8.102;2023-02-04T11:02:10;58.20;;;9.95;;
34212;SDS011;20477;51.390;8.102;2023-02-04T11:04:50;40.95;;;8.10;;
34212;SDS011;20477;51.390;8.102;2023-02-04T11:07:19;41.67;;;9.07;;
34212;SDS011;20477;51.390;8.102;2023-02-04T11:09:49;42.75;;;6.88;;
34212;SDS011;20477;51.390;8.102;2023-02-04T11:12:19;43.78;;;9.13;;
34212;SDS011;20477;51.390;8.102;2023-02-04T11:14:54;44.15;;;8.95;;
34212;SDS011;20477;51.390;8.102;2023-02-04T11:17:27;42.53;;;6.63;;
34212;SDS011;20477;51.390;8.102;2023-02-04T11:19:56;46.97;;;7.63;;
34212;SDS011;20477;51.390;8.102;2023-02-04T11:22:35;32.92;;;6.25;;
34212;SDS011;20477;51.390;8.102;2023-02-04T11:30:39;45.17;;;7.40;;
34212;SDS011;20477;51.390;8.102;2023-02-04T11:33:21;33.55;;;5.68;;
34212;SDS011;20477;51.390;8.102;2023-02-04T11:35:59;36.35;;;6.97;;
34212;SDS011;20477;51.390;8.102;2023-02-04T11:38:30;35.33;;;6.45;;
34212;SDS011;20477;51.390;8.102;2023-02-04T11:41:00;32.50;;;6.85;;
34212;SDS011;20477;51.390;8.102;2023-02-04T11:43:31;43.47;;;5.93;;
34212;SDS011;20477;51.390;8.102;2023-02-04T11:46:01;39.90;;;7.00;;
34212;SDS011;20477;51.390;8.102;2023-02-04T11:48:34;38.88;;;6.97;;
34212;SDS011;20477;51.390;8.102;2023-02-04T11:51:09;37.00;;;7.28;;
34212;SDS011;20477;51.390;8.102;2023-02-04T11:53:39;40.38;;;6.13;;
34212;SDS011;20477;51.390;8.102;2023-02-04T11:56:15;46.72;;;7.28;;
34212;SDS011;20477;51.390;8.102;2023-02-04T11:58:43;36.47;;;8.30;;
34212;SDS011;20477;51.390;8.102;2023-02-04T12:01:17;37.15;;;7.28;;
34212;SDS011;20477;51.390;8.102;2023-02-04T12:03:47;37.58;;;6.28;;
34212;SDS011;20477;51.390;8.102;2023-02-04T12:06:20;37.55;;;6.20;;
34212;SDS011;20477;51.390;8.102;2023-02-04T12:08:49;38.85;;;6.82;;
34212;SDS011;20477;51.390;8.102;2023-02-04T12:11:24;43.13;;;6.88;;
34212;SDS011;20477;51.390;8.102;2023-02-04T12:13:56;39.30;;;6.82;;
34212;SDS011;20477;51.390;8.102;2023-02-04T12:16:25;47.33;;;6.07;;
34212;SDS011;20477;51.390;8.102;2023-02-04T12:18:53;33.28;;;5.90;;
34212;SDS011;20477;51.390;8.102;2023-02-04T12:21:22;37.47;;;6.03;;
34212;SDS011;20477;51.390;8.102;2023-02-04T12:23:50;52.90;;;8.95;;
34212;SDS011;20477;51.390;8.102;2023-02-04T12:26:19;39.88;;;6.10;;
34212;SDS011;20477;51.390;8.102;2023-02-04T12:28:48;35.42;;;7.40;;
34212;SDS011;20477;51.390;8.102;2023-02-04T12:31:17;38.95;;;7.13;;
34212;SDS011;20477;51.390;8.102;2023-02-04T12:33:45;40.80;;;6.63;;
34212;SDS011;20477;51.390;8.102;2023-02-04T12:36:14;44.00;;;7.43;;
34212;SDS011;20477;51.390;8.102;2023-02-04T12:38:42;23.70;;;5.55;;
34212;SDS011;20477;51.390;8.102;2023-02-04T12:41:10;38.78;;;6.65;;
34212;SDS011;20477;51.390;8.102;2023-02-04T12:43:39;38.97;;;5.75;;
34212;SDS011;20477;51.390;8.102;2023-02-04T12:46:08;42.10;;;5.65;;
34212;SDS011;20477;51.390;8.102;2023-02-04T12:48:37;25.55;;;5.88;;
34212;SDS011;20477;51.390;8.102;2023-02-04T12:51:06;44.75;;;6.38;;
34212;SDS011;20477;51.390;8.102;2023-02-04T12:53:35;30.02;;;6.93;;
34212;SDS011;20477;51.390;8.102;2023-02-04T12:56:03;37.15;;;7.25;;
34212;SDS011;20477;51.390;8.102;2023-02-04T12:58:32;35.78;;;6.95;;
34212;SDS011;20477;51.390;8.102;2023-02-04T13:01:00;36.95;;;7.70;;
34212;SDS011;20477;51.390;8.102;2023-02-04T13:03:31;41.90;;;8.73;;
34212;SDS011;20477;51.390;8.102;2023-02-04T13:05:59;34.63;;;7.28;;
34212;SDS011;20477;51.390;8.102;2023-02-04T13:08:28;29.63;;;5.65;;
34212;SDS011;20477;51.390;8.102;2023-02-04T13:10:56;34.45;;;5.85;;
34212;SDS011;20477;51.390;8.102;2023-02-04T13:13:25;38.30;;;6.88;;
34212;SDS011;20477;51.390;8.102;2023-02-04T13:15:53;33.22;;;6.43;;
34212;SDS011;20477;51.390;8.102;2023-02-04T13:18:21;35.75;;;6.30;;
34212;SDS011;20477;51.390;8.102;2023-02-04T13:20:51;45.80;;;7.25;;
34212;SDS011;20477;51.390;8.102;2023-02-04T13:23:20;32.42;;;5.78;;
34212;SDS011;20477;51.390;8.102;2023-02-04T13:25:48;37.22;;;6.97;;
34212;SDS011;20477;51.390;8.102;2023-02-04T13:28:16;38.20;;;6.78;;
34212;SDS011;20477;51.390;8.102;2023-02-04T13:30:45;41.65;;;7.32;;
34212;SDS011;20477;51.390;8.102;2023-02-04T13:33:13;43.20;;;6.95;;
34212;SDS011;20477;51.390;8.102;2023-02-04T13:35:42;30.08;;;6.80;;
34212;SDS011;20477;51.390;8.102;2023-02-04T13:38:12;39.95;;;6.55;;
34212;SDS011;20477;51.390;8.102;2023-02-04T13:40:40;44.78;;;6.72;;
34212;SDS011;20477;51.390;8.102;2023-02-04T13:43:08;32.50;;;5.95;;
34212;SDS011;20477;51.390;8.102;2023-02-04T13:45:37;37.97;;;7.07;;
34212;SDS011;20477;51.390;8.102;2023-02-04T13:48:06;37.38;;;6.65;;
34212;SDS011;20477;51.390;8.102;2023-02-04T13:50:34;36.45;;;6.28;;
34212;SDS011;20477;51.390;8.102;2023-02-04T13:53:02;33.65;;;5.60;;
34212;SDS011;20477;51.390;8.102;2023-02-04T13:55:32;38.70;;;7.13;;
34212;SDS011;20477;51.390;8.102;2023-02-04T13:58:00;35.28;;;6.25;;
34212;SDS011;20477;51.390;8.102;2023-02-04T14:00:29;27.45;;;4.75;;
34212;SDS011;20477;51.390;8.102;2023-02-04T14:02:58;37.65;;;6.20;;
34212;SDS011;20477;51.390;8.102;2023-02-04T14:05:26;39.40;;;6.95;;
34212;SDS011;20477;51.390;8.102;2023-02-04T14:07:54;30.27;;;5.75;;
34212;SDS011;20477;51.390;8.102;2023-02-04T14:10:23;38.13;;;5.55;;
34212;SDS011;20477;51.390;8.102;2023-02-04T14:12:53;48.10;;;6.72;;
34212;SDS011;20477;51.390;8.102;2023-02-04T14:15:23;21.98;;;5.05;;
34212;SDS011;20477;51.390;8.102;2023-02-04T14:17:52;41.38;;;6.68;;
34212;SDS011;20477;51.390;8.102;2023-02-04T14:20:20;31.90;;;6.18;;
34212;SDS011;20477;51.390;8.102;2023-02-04T14:22:49;40.97;;;7.82;;
34212;SDS011;20477;51.390;8.102;2023-02-04T14:25:17;20.25;;;5.28;;
34212;SDS011;20477;51.390;8.102;2023-02-04T14:27:46;37.17;;;6.75;;
34212;SDS011;20477;51.390;8.102;2023-02-04T14:30:16;32.20;;;7.15;;
34212;SDS011;20477;51.390;8.102;2023-02-04T14:32:46;38.05;;;6.55;;
34212;SDS011;20477;51.390;8.102;2023-02-04T14:35:15;37.35;;;7.32;;
34212;SDS011;20477;51.390;8.102;2023-02-04T14:37:44;29.52;;;7.50;;
34212;SDS011;20477;51.390;8.102;2023-02-04T14:40:16;34.05;;;6.32;;
34212;SDS011;20477;51.390;8.102;2023-02-04T14:42:53;22.20;;;5.60;;
34212;SDS011;20477;51.390;8.102;2023-02-04T14:45:32;31.23;;;5.50;;
34212;SDS011;20477;51.390;8.102;2023-02-04T14:48:00;31.52;;;5.82;;
34212;SDS011;20477;51.390;8.102;2023-02-04T14:50:28;34.08;;;7.78;;
34212;SDS011;20477;51.390;8.102;2023-02-04T14:52:57;32.45;;;5.70;;
34212;SDS011;20477;51.390;8.102;2023-02-04T14:55:25;30.95;;;5.72;;
34212;SDS011;20477;51.390;8.102;2023-02-04T14:57:54;39.55;;;6.72;;
34212;SDS011;20477;51.390;8.102;2023-02-04T15:00:23;37.28;;;4.90;;
34212;SDS011;20477;51.390;8.102;2023-02-04T15:02:52;32.95;;;5.80;;
34212;SDS011;20477;51.390;8.102;2023-02-04T15:05:21;30.27;;;5.85;;
34212;SDS011;20477;51.390;8.102;2023-02-04T15:07:49;31.92;;;6.97;;
34212;SDS011;20477;51.390;8.102;2023-02-04T15:10:17;39.78;;;6.68;;
34212;SDS011;20477;51.390;8.102;2023-02-04T15:12:46;37.65;;;6.50;;
34212;SDS011;20477;51.390;8.102;2023-02-04T15:15:16;32.53;;;5.93;;
34212;SDS011;20477;51.390;8.102;2023-02-04T15:17:44;31.95;;;5.55;;
34212;SDS011;20477;51.390;8.102;2023-02-04T15:20:14;38.70;;;5.45;;
34212;SDS011;20477;51.390;8.102;2023-02-04T15:22:43;31.75;;;6.65;;
34212;SDS011;20477;51.390;8.102;2023-02-04T15:25:17;23.85;;;4.80;;
34212;SDS011;20477;51.390;8.102;2023-02-04T15:27:45;32.55;;;5.93;;
34212;SDS011;20477;51.390;8.102;2023-02-04T15:30:14;24.60;;;5.75;;
34212;SDS011;20477;51.390;8.102;2023-02-04T15:32:42;27.98;;;6.32;;
34212;SDS011;20477;51.390;8.102;2023-02-04T15:35:11;30.30;;;5.53;;
34212;SDS011;20477;51.390;8.102;2023-02-04T15:37:41;32.22;;;6.15;;
34212;SDS011;20477;51.390;8.102;2023-02-04T15:40:10;24.90;;;5.85;;
34212;SDS011;20477;51.390;8.102;2023-02-04T15:42:38;30.48;;;5.82;;
34212;SDS011;20477;51.390;8.102;2023-02-04T15:45:08;39.88;;;7.18;;
34212;SDS011;20477;51.390;8.102;2023-02-04T15:47:36;25.38;;;5.05;;
34212;SDS011;20477;51.390;8.102;2023-02-04T15:50:05;28.20;;;5.32;;
34212;SDS011;20477;51.390;8.102;2023-02-04T15:52:36;25.95;;;6.00;;
34212;SDS011;20477;51.390;8.102;2023-02-04T15:55:06;37.30;;;5.60;;
34212;SDS011;20477;51.390;8.102;2023-02-04T15:57:35;31.83;;;5.93;;
34212;SDS011;20477;51.390;8.102;2023-02-04T16:00:04;25.17;;;5.20;;
34212;SDS011;20477;51.390;8.102;2023-02-04T16:02:33;27.27;;;4.82;;
34212;SDS011;20477;51.390;8.102;2023-02-04T16:05:02;26.27;;;6.00;;
34212;SDS011;20477;51.390;8.102;2023-02-04T16:07:30;28.08;;;4.45;;
34212;SDS011;20477;51.390;8.102;2023-02-04T16:09:58;29.63;;;4.65;;
34212;SDS011;20477;51.390;8.102;2023-02-04T16:12:28;26.75;;;4.70;;
34212;SDS011;20477;51.390;8.102;2023-02-04T16:14:56;28.35;;;6.32;;
34212;SDS011;20477;51.390;8.102;2023-02-04T16:17:25;39.22;;;5.75;;
34212;SDS011;20477;51.390;8.102;2023-02-04T16:19:53;30.98;;;4.82;;
34212;SDS011;20477;51.390;8.102;2023-02-04T16:22:23;22.67;;;4.28;;
34212;SDS011;20477;51.390;8.102;2023-02-04T16:24:51;27.55;;;5.97;;
34212;SDS011;20477;51.390;8.102;2023-02-04T16:27:20;36.45;;;6.97;;
34212;SDS011;20477;51.390;8.102;2023-02-04T16:29:50;37.97;;;7.55;;
34212;SDS011;20477;51.390;8.102;2023-02-04T16:32:21;138.20;;;66.20;;
34212;SDS011;20477;51.390;8.102;2023-02-04T16:34:49;46.65;;;21.48;;
34212;SDS011;20477;51.390;8.102;2023-02-04T16:37:18;23.45;;;10.93;;
34212;SDS011;20477;51.390;8.102;2023-02-04T16:39:46;32.03;;;9.65;;
34212;SDS011;20477;51.390;8.102;2023-02-04T16:42:17;38.00;;;8.45;;
34212;SDS011;20477;51.390;8.102;2023-02-04T16:44:45;28.20;;;6.82;;
34212;SDS011;20477;51.390;8.102;2023-02-04T16:47:15;33.50;;;7.32;;
34212;SDS011;20477;51.390;8.102;2023-02-04T16:49:43;23.48;;;5.70;;
34212;SDS011;20477;51.390;8.102;2023-02-04T16:52:13;29.10;;;6.97;;
34212;SDS011;20477;51.390;8.102;2023-02-04T16:54:42;32.22;;;6.85;;
34212;SDS011;20477;51.390;8.102;2023-02-04T16:57:10;29.73;;;6.32;;
34212;SDS011;20477;51.390;8.102;2023-02-04T16:59:40;29.30;;;6.30;;
34212;SDS011;20477;51.390;8.102;2023-02-04T17:02:08;28.73;;;7.80;;
34212;SDS011;20477;51.390;8.102;2023-02-04T17:04:38;28.10;;;6.82;;
34212;SDS011;20477;51.390;8.102;2023-02-04T17:07:06;31.15;;;8.50;;
34212;SDS011;20477;51.390;8.102;2023-02-04T17:09:35;33.10;;;6.88;;
34212;SDS011;20477;51.390;8.102;2023-02-04T17:12:03;28.10;;;7.60;;
34212;SDS011;20477;51.390;8.102;2023-02-04T17:14:32;29.35;;;8.02;;
34212;SDS011;20477;51.390;8.102;2023-02-04T17:17:00;34.70;;;10.50;;
34212;SDS011;20477;51.390;8.102;2023-02-04T17:19:29;31.20;;;10.73;;
34212;SDS011;20477;51.390;8.102;2023-02-04T17:21:59;40.47;;;10.95;;
34212;SDS011;20477;51.390;8.102;2023-02-04T17:24:27;36.83;;;11.15;;
34212;SDS011;20477;51.390;8.102;2023-02-04T17:26:55;34.45;;;9.60;;
34212;SDS011;20477;51.390;8.102;2023-02-04T17:29:25;55.80;;;16.67;;
34212;SDS011;20477;51.390;8.102;2023-02-04T17:31:54;41.75;;;13.25;;
34212;SDS011;20477;51.390;8.102;2023-02-04T17:34:22;44.40;;;12.65;;
34212;SDS011;20477;51.390;8.102;2023-02-04T17:36:52;37.10;;;12.43;;
34212;SDS011;20477;51.390;8.102;2023-02-04T17:39:21;38.35;;;10.27;;
34212;SDS011;20477;51.390;8.102;2023-02-04T17:41:53;34.50;;;8.98;;
34212;SDS011;20477;51.390;8.102;2023-02-04T17:44:21;39.40;;;9.77;;
34212;SDS011;20477;51.390;8.102;2023-02-04T17:46:53;36.30;;;12.85;;
34212;SDS011;20477;51.390;8.102;2023-02-04T17:49:22;35.58;;;9.18;;
34212;SDS011;20477;51.390;8.102;2023-02-04T17:51:51;38.65;;;10.23;;
34212;SDS011;20477;51.390;8.102;2023-02-04T17:54:19;31.58;;;8.60;;
34212;SDS011;20477;51.390;8.102;2023-02-04T17:56:49;31.27;;;9.02;;
34212;SDS011;20477;51.390;8.102;2023-02-04T17:59:18;28.00;;;9.30;;
34212;SDS011;20477;51.390;8.102;2023-02-04T18:01:46;33.67;;;8.98;;
34212;SDS011;20477;51.390;8.102;2023-02-04T18:04:15;50.35;;;10.95;;
34212;SDS011;20477;51.390;8.102;2023-02-04T18:06:50;34.08;;;12.32;;
34212;SDS011;20477;51.390;8.102;2023-02-04T18:09:18;31.05;;;8.93;;
34212;SDS011;20477;51.390;8.102;2023-02-04T18:11:46;33.90;;;9.77;;
34212;SDS011;20477;51.390;8.102;2023-02-04T18:14:19;38.25;;;9.63;;
34212;SDS011;20477;51.390;8.102;2023-02-04T18:16:51;37.35;;;10.02;;
34212;SDS011;20477;51.390;8.102;2023-02-04T18:19:21;48.25;;;11.20;;
34212;SDS011;20477;51.390;8.102;2023-02-04T18:21:55;41.70;;;15.18;;
34212;SDS011;20477;51.390;8.102;2023-02-04T18:24:26;36.60;;;14.18;;
34212;SDS011;20477;51.390;8.102;2023-02-04T18:26:58;39.08;;;13.13;;
34212;SDS011;20477;51.390;8.102;2023-02-04T18:29:30;30.98;;;9.40;;
34212;SDS011;20477;51.390;8.102;2023-02-04T18:32:01;26.17;;;8.43;;
34212;SDS011;20477;51.390;8.102;2023-02-04T18:34:32;37.20;;;7.15;;
34212;SDS011;20477;51.390;8.102;2023-02-04T18:37:22;39.42;;;9.25;;
34212;SDS011;20477;51.390;8.102;2023-02-04T18:39:55;34.07;;;9.10;;
34212;SDS011;20477;51.390;8.102;2023-02-04T18:42:28;27.00;;;8.30;;
34212;SDS011;20477;51.390;8.102;2023-02-04T18:44:57;34.47;;;9.63;;
34212;SDS011;20477;51.390;8.102;2023-02-04T18:47:27;41.28;;;9.32;;
34212;SDS011;20477;51.390;8.102;2023-02-04T18:49:58;27.98;;;7.90;;
34212;SDS011;20477;51.390;8.102;2023-02-04T18:52:27;30.23;;;8.45;;
34212;SDS011;20477;51.390;8.102;2023-02-04T18:55:10;32.78;;;8.63;;
34212;SDS011;20477;51.390;8.102;2023-02-04T18:57:46;34.22;;;8.73;;
34212;SDS011;20477;51.390;8.102;2023-02-04T19:00:20;43.65;;;9.43;;
34212;SDS011;20477;51.390;8.102;2023-02-04T19:02:51;39.65;;;9.77;;
34212;SDS011;20477;51.390;8.102;2023-02-04T19:05:23;40.15;;;11.80;;
34212;SDS011;20477;51.390;8.102;2023-02-04T19:08:11;37.40;;;10.65;;
34212;SDS011;20477;51.390;8.102;2023-02-04T19:10:44;49.53;;;15.88;;
34212;SDS011;20477;51.390;8.102;2023-02-04T19:13:16;31.75;;;11.02;;
34212;SDS011;20477;51.390;8.102;2023-02-04T19:15:49;37.95;;;12.07;;
34212;SDS011;20477;51.390;8.102;2023-02-04T19:18:26;36.03;;;8.57;;
34212;SDS011;20477;51.390;8.102;2023-02-04T19:20:55;43.00;;;7.63;;
34212;SDS011;20477;51.390;8.102;2023-02-04T19:23:32;38.05;;;8.43;;
34212;SDS011;20477;51.390;8.102;2023-02-04T19:26:03;35.03;;;8.93;;
34212;SDS011;20477;51.390;8.102;2023-02-04T19:28:50;29.75;;;8.82;;